sensor_id;sensor_type;location;lat;lon;timestamp;P1;durP1;ratioP1;P2;durP2;ratioP2
51128;SDS011;46230;47.522;19.098;2022-08-01T00:01:27;2.97;;;2.58;;
51128;SDS011;46230;47.522;19.098;2022-08-01T00:03:27;3.65;;;2.42;;
51128;SDS011;46230;47.522;19.098;2022-08-01T00:05:27;3.90;;;2.50;;
51128;SDS011;46230;47.522;19.098;2022-08-01T00:07:28;5.55;;;2.80;;
51128;SDS011;46230;47.522;19.098;2022-08-01T00:09:28;4.60;;;2.50;;
51128;SDS011;46230;47.522;19.098;2022-08-01T00:11:29;3.92;;;2.20;;
51128;SDS011;46230;47.522;19.098;2022-08-01T00:13:29;5.18;;;2.30;;
51128;SDS011;46230;47.522;19.098;2022-08-01T00:15:30;5.25;;;2.60;;
51128;SDS011;46230;47.522;19.098;2022-08-01T00:17:30;4.07;;;2.50;;
51128;SDS011;46230;47.522;19.098;2022-08-01T00:19:31;4.30;;;2.60;;
51128;SDS011;46230;47.522;19.098;2022-08-01T00:21:31;9.75;;;2.58;;
51128;SDS011;46230;47.522;19.098;2022-08-01T00:23:32;2.38;;;2.15;;
51128;SDS011;46230;47.522;19.098;2022-08-01T00:25:32;9.07;;;2.83;;
51128;SDS011;46230;47.522;19.098;2022-08-01T00:27:33;3.58;;;2.40;;
51128;SDS011;46230;47.522;19.098;2022-08-01T00:29:33;3.90;;;2.30;;
51128;SDS011;46230;47.522;19.098;2022-08-01T00:31:33;4.47;;;2.25;;
51128;SDS011;46230;47.522;19.098;2022-08-01T00:33:34;5.07;;;2.63;;
51128;SDS011;46230;47.522;19.098;2022-08-01T00:35:34;5.40;;;2.55;;
51128;SDS011;46230;47.522;19.098;2022-08-01T00:37:34;3.05;;;2.50;;
51128;SDS011;46230;47.522;19.098;2022-08-01T00:39:35;2.53;;;2.20;;
51128;SDS011;46230;47.522;19.098;2022-08-01T00:41:35;3.00;;;2.45;;
51128;SDS011;46230;47.522;19.098;2022-08-01T00:43:36;2.95;;;2.30;;
51128;SDS011;46230;47.522;19.098;2022-08-01T00:45:36;3.53;;;2.20;;
51128;SDS011;46230;47.522;19.098;2022-08-01T00:47:36;4.80;;;2.65;;
51128;SDS011;46230;47.522;19.098;2022-08-01T00:49:37;2.42;;;2.15;;
51128;SDS011;46230;47.522;19.098;2022-08-01T00:51:38;3.17;;;2.50;;
51128;SDS011;46230;47.522;19.098;2022-08-01T00:53:39;4.35;;;2.17;;
51128;SDS011;46230;47.522;19.098;2022-08-01T00:55:39;4.90;;;2.40;;
51128;SDS011;46230;47.522;19.098;2022-08-01T00:57:40;4.15;;;2.60;;
51128;SDS011;46230;47.522;19.098;2022-08-01T00:59:40;2.40;;;2.20;;
51128;SDS011;46230;47.522;19.098;2022-08-01T01:01:41;4.22;;;2.00;;
51128;SDS011;46230;47.522;19.098;2022-08-01T01:03:41;2.80;;;2.15;;
51128;SDS011;46230;47.522;19.098;2022-08-01T01:06:27;2.67;;;2.30;;
51128;SDS011;46230;47.522;19.098;2022-08-01T01:08:25;3.20;;;2.20;;
51128;SDS011;46230;47.522;19.098;2022-08-01T01:17:10;2.50;;;2.30;;
51128;SDS011;46230;47.522;19.098;2022-08-01T01:19:13;3.90;;;2.20;;
51128;SDS011;46230;47.522;19.098;2022-08-01T01:30:02;2.30;;;2.10;;
51128;SDS011;46230;47.522;19.098;2022-08-01T01:32:13;3.47;;;2.42;;
51128;SDS011;46230;47.522;19.098;2022-08-01T01:34:19;3.00;;;2.25;;
51128;SDS011;46230;47.522;19.098;2022-08-01T01:36:21;4.10;;;2.42;;
51128;SDS011;46230;47.522;19.098;2022-08-01T01:38:22;2.33;;;2.13;;
51128;SDS011;46230;47.522;19.098;2022-08-01T01:40:25;5.05;;;2.25;;
51128;SDS011;46230;47.522;19.098;2022-08-01T01:42:26;3.30;;;2.33;;
51128;SDS011;46230;47.522;19.098;2022-08-01T01:44:27;2.95;;;2.10;;
51128;SDS011;46230;47.522;19.098;2022-08-01T01:46:28;3.28;;;2.70;;
51128;SDS011;46230;47.522;19.098;2022-08-01T01:48:29;3.88;;;2.30;;
51128;SDS011;46230;47.522;19.098;2022-08-01T01:50:29;3.17;;;2.42;;
51128;SDS011;46230;47.522;19.098;2022-08-01T01:52:30;2.70;;;2.35;;
51128;SDS011;46230;47.522;19.098;2022-08-01T01:54:33;5.70;;;2.50;;
51128;SDS011;46230;47.522;19.098;2022-08-01T01:56:35;2.92;;;2.30;;
51128;SDS011;46230;47.522;19.098;2022-08-01T01:58:36;6.10;;;2.90;;
51128;SDS011;46230;47.522;19.098;2022-08-01T02:00:38;2.60;;;2.40;;
51128;SDS011;46230;47.522;19.098;2022-08-01T02:02:40;4.43;;;3.00;;
51128;SDS011;46230;47.522;19.098;2022-08-01T02:04:42;5.30;;;2.53;;
51128;SDS011;46230;47.522;19.098;2022-08-01T02:06:44;3.75;;;3.10;;
51128;SDS011;46230;47.522;19.098;2022-08-01T02:08:45;5.75;;;2.70;;
51128;SDS011;46230;47.522;19.098;2022-08-01T02:10:46;3.72;;;2.72;;
51128;SDS011;46230;47.522;19.098;2022-08-01T02:12:47;6.07;;;2.65;;
51128;SDS011;46230;47.522;19.098;2022-08-01T02:14:49;3.40;;;2.58;;
51128;SDS011;46230;47.522;19.098;2022-08-01T02:16:50;4.03;;;2.58;;
51128;SDS011;46230;47.522;19.098;2022-08-01T02:18:50;4.35;;;2.85;;
51128;SDS011;46230;47.522;19.098;2022-08-01T02:20:52;5.88;;;2.60;;
51128;SDS011;46230;47.522;19.098;2022-08-01T02:23:15;4.80;;;2.45;;
51128;SDS011;46230;47.522;19.098;2022-08-01T02:25:16;5.45;;;2.42;;
51128;SDS011;46230;47.522;19.098;2022-08-01T02:27:37;2.60;;;2.40;;
51128;SDS011;46230;47.522;19.098;2022-08-01T02:29:42;4.18;;;2.40;;
51128;SDS011;46230;47.522;19.098;2022-08-01T02:31:45;4.07;;;2.70;;
51128;SDS011;46230;47.522;19.098;2022-08-01T02:33:54;5.13;;;2.67;;
51128;SDS011;46230;47.522;19.098;2022-08-01T02:36:03;4.30;;;2.72;;
51128;SDS011;46230;47.522;19.098;2022-08-01T02:38:05;4.53;;;2.85;;
51128;SDS011;46230;47.522;19.098;2022-08-01T02:40:06;3.85;;;2.70;;
51128;SDS011;46230;47.522;19.098;2022-08-01T02:42:08;5.40;;;3.30;;
51128;SDS011;46230;47.522;19.098;2022-08-01T02:44:14;6.28;;;2.50;;
51128;SDS011;46230;47.522;19.098;2022-08-01T02:48:55;4.18;;;2.65;;
51128;SDS011;46230;47.522;19.098;2022-08-01T02:50:57;8.15;;;2.80;;
51128;SDS011;46230;47.522;19.098;2022-08-01T02:52:58;3.83;;;2.87;;
51128;SDS011;46230;47.522;19.098;2022-08-01T02:55:00;4.35;;;3.10;;
51128;SDS011;46230;47.522;19.098;2022-08-01T02:57:01;5.03;;;3.00;;
51128;SDS011;46230;47.522;19.098;2022-08-01T02:59:06;5.72;;;2.60;;
51128;SDS011;46230;47.522;19.098;2022-08-01T03:01:08;5.30;;;3.00;;
51128;SDS011;46230;47.522;19.098;2022-08-01T03:03:10;10.68;;;3.42;;
51128;SDS011;46230;47.522;19.098;2022-08-01T03:05:12;5.32;;;3.15;;
51128;SDS011;46230;47.522;19.098;2022-08-01T03:07:13;6.70;;;3.00;;
51128;SDS011;46230;47.522;19.098;2022-08-01T03:09:14;5.97;;;3.13;;
51128;SDS011;46230;47.522;19.098;2022-08-01T03:11:15;4.63;;;3.00;;
51128;SDS011;46230;47.522;19.098;2022-08-01T03:13:15;7.20;;;2.90;;
51128;SDS011;46230;47.522;19.098;2022-08-01T03:15:17;6.00;;;3.55;;
51128;SDS011;46230;47.522;19.098;2022-08-01T03:17:18;6.57;;;3.22;;
51128;SDS011;46230;47.522;19.098;2022-08-01T03:21:23;4.22;;;2.90;;
51128;SDS011;46230;47.522;19.098;2022-08-01T03:23:23;5.43;;;2.80;;
51128;SDS011;46230;47.522;19.098;2022-08-01T03:25:24;2.97;;;2.70;;
51128;SDS011;46230;47.522;19.098;2022-08-01T03:27:25;5.57;;;3.20;;
51128;SDS011;46230;47.522;19.098;2022-08-01T03:29:27;4.93;;;3.15;;
51128;SDS011;46230;47.522;19.098;2022-08-01T03:31:27;3.80;;;2.80;;
51128;SDS011;46230;47.522;19.098;2022-08-01T03:33:28;5.13;;;2.83;;
51128;SDS011;46230;47.522;19.098;2022-08-01T03:35:30;4.95;;;3.15;;
51128;SDS011;46230;47.522;19.098;2022-08-01T03:37:44;3.75;;;2.88;;
51128;SDS011;46230;47.522;19.098;2022-08-01T03:40:35;4.40;;;3.17;;
51128;SDS011;46230;47.522;19.098;2022-08-01T03:42:41;5.82;;;3.00;;
51128;SDS011;46230;47.522;19.098;2022-08-01T03:44:47;6.00;;;3.22;;
51128;SDS011;46230;47.522;19.098;2022-08-01T03:46:56;3.40;;;2.97;;
51128;SDS011;46230;47.522;19.098;2022-08-01T03:49:01;3.67;;;3.10;;
51128;SDS011;46230;47.522;19.098;2022-08-01T03:51:05;6.50;;;3.05;;
51128;SDS011;46230;47.522;19.098;2022-08-01T03:53:06;3.47;;;3.17;;
51128;SDS011;46230;47.522;19.098;2022-08-01T03:55:07;3.97;;;2.90;;
51128;SDS011;46230;47.522;19.098;2022-08-01T03:57:08;5.45;;;3.33;;
51128;SDS011;46230;47.522;19.098;2022-08-01T03:59:10;4.45;;;2.85;;
51128;SDS011;46230;47.522;19.098;2022-08-01T04:01:10;6.43;;;3.00;;
51128;SDS011;46230;47.522;19.098;2022-08-01T04:03:13;5.22;;;3.28;;
51128;SDS011;46230;47.522;19.098;2022-08-01T04:05:14;5.38;;;3.13;;
51128;SDS011;46230;47.522;19.098;2022-08-01T04:07:23;3.88;;;3.28;;
51128;SDS011;46230;47.522;19.098;2022-08-01T04:09:30;3.28;;;2.97;;
51128;SDS011;46230;47.522;19.098;2022-08-01T04:11:31;3.17;;;2.90;;
51128;SDS011;46230;47.522;19.098;2022-08-01T04:13:31;8.50;;;3.20;;
51128;SDS011;46230;47.522;19.098;2022-08-01T04:15:31;4.05;;;2.88;;
51128;SDS011;46230;47.522;19.098;2022-08-01T04:17:32;4.45;;;2.88;;
51128;SDS011;46230;47.522;19.098;2022-08-01T04:19:32;6.20;;;3.30;;
51128;SDS011;46230;47.522;19.098;2022-08-01T04:21:33;4.28;;;2.78;;
51128;SDS011;46230;47.522;19.098;2022-08-01T04:23:34;5.72;;;2.65;;
51128;SDS011;46230;47.522;19.098;2022-08-01T04:25:35;3.40;;;2.88;;
51128;SDS011;46230;47.522;19.098;2022-08-01T04:27:36;5.20;;;3.10;;
51128;SDS011;46230;47.522;19.098;2022-08-01T04:29:39;4.72;;;3.25;;
51128;SDS011;46230;47.522;19.098;2022-08-01T04:31:41;5.43;;;3.05;;
51128;SDS011;46230;47.522;19.098;2022-08-01T04:35:44;4.10;;;3.33;;
51128;SDS011;46230;47.522;19.098;2022-08-01T04:37:45;3.72;;;3.15;;
51128;SDS011;46230;47.522;19.098;2022-08-01T04:39:47;5.55;;;3.22;;
51128;SDS011;46230;47.522;19.098;2022-08-01T04:41:48;4.50;;;3.22;;
51128;SDS011;46230;47.522;19.098;2022-08-01T04:43:49;7.47;;;3.10;;
51128;SDS011;46230;47.522;19.098;2022-08-01T04:45:50;4.47;;;2.92;;
51128;SDS011;46230;47.522;19.098;2022-08-01T04:47:51;4.07;;;2.88;;
51128;SDS011;46230;47.522;19.098;2022-08-01T04:49:52;6.22;;;3.30;;
51128;SDS011;46230;47.522;19.098;2022-08-01T04:51:53;4.38;;;2.95;;
51128;SDS011;46230;47.522;19.098;2022-08-01T04:53:55;4.97;;;3.15;;
51128;SDS011;46230;47.522;19.098;2022-08-01T04:55:55;6.40;;;3.30;;
51128;SDS011;46230;47.522;19.098;2022-08-01T04:57:56;5.88;;;3.20;;
51128;SDS011;46230;47.522;19.098;2022-08-01T04:59:56;7.45;;;3.08;;
51128;SDS011;46230;47.522;19.098;2022-08-01T05:01:56;5.38;;;3.22;;
51128;SDS011;46230;47.522;19.098;2022-08-01T05:03:57;6.57;;;3.05;;
51128;SDS011;46230;47.522;19.098;2022-08-01T05:05:57;3.78;;;2.97;;
51128;SDS011;46230;47.522;19.098;2022-08-01T05:07:58;4.07;;;3.13;;
51128;SDS011;46230;47.522;19.098;2022-08-01T05:09:58;4.80;;;2.85;;
51128;SDS011;46230;47.522;19.098;2022-08-01T05:11:59;4.20;;;3.17;;
51128;SDS011;46230;47.522;19.098;2022-08-01T05:13:59;3.70;;;3.30;;
51128;SDS011;46230;47.522;19.098;2022-08-01T05:16:00;5.38;;;3.10;;
51128;SDS011;46230;47.522;19.098;2022-08-01T05:18:00;5.30;;;3.13;;
51128;SDS011;46230;47.522;19.098;2022-08-01T05:20:01;4.45;;;3.08;;
51128;SDS011;46230;47.522;19.098;2022-08-01T05:22:01;4.65;;;2.72;;
51128;SDS011;46230;47.522;19.098;2022-08-01T05:24:04;3.93;;;3.10;;
51128;SDS011;46230;47.522;19.098;2022-08-01T05:26:04;6.55;;;2.72;;
51128;SDS011;46230;47.522;19.098;2022-08-01T05:28:05;4.35;;;3.03;;
51128;SDS011;46230;47.522;19.098;2022-08-01T05:30:06;4.57;;;2.83;;
51128;SDS011;46230;47.522;19.098;2022-08-01T05:32:07;3.58;;;2.97;;
51128;SDS011;46230;47.522;19.098;2022-08-01T05:34:08;5.88;;;2.88;;
51128;SDS011;46230;47.522;19.098;2022-08-01T05:36:09;4.05;;;2.78;;
51128;SDS011;46230;47.522;19.098;2022-08-01T05:38:09;4.38;;;2.80;;
51128;SDS011;46230;47.522;19.098;2022-08-01T05:40:10;3.28;;;2.80;;
51128;SDS011;46230;47.522;19.098;2022-08-01T05:42:10;6.13;;;2.78;;
51128;SDS011;46230;47.522;19.098;2022-08-01T05:44:11;4.45;;;3.10;;
51128;SDS011;46230;47.522;19.098;2022-08-01T05:46:11;3.78;;;2.90;;
51128;SDS011;46230;47.522;19.098;2022-08-01T05:48:12;3.83;;;2.60;;
51128;SDS011;46230;47.522;19.098;2022-08-01T05:50:12;4.00;;;2.72;;
51128;SDS011;46230;47.522;19.098;2022-08-01T05:52:13;7.30;;;2.90;;
51128;SDS011;46230;47.522;19.098;2022-08-01T05:54:13;8.98;;;2.55;;
51128;SDS011;46230;47.522;19.098;2022-08-01T05:56:13;5.25;;;2.63;;
51128;SDS011;46230;47.522;19.098;2022-08-01T05:58:14;6.55;;;2.55;;
51128;SDS011;46230;47.522;19.098;2022-08-01T06:00:14;4.93;;;2.38;;
51128;SDS011;46230;47.522;19.098;2022-08-01T06:02:15;5.25;;;2.35;;
51128;SDS011;46230;47.522;19.098;2022-08-01T06:04:15;4.15;;;2.70;;
51128;SDS011;46230;47.522;19.098;2022-08-01T06:06:15;6.53;;;3.25;;
51128;SDS011;46230;47.522;19.098;2022-08-01T06:08:16;5.97;;;2.75;;
51128;SDS011;46230;47.522;19.098;2022-08-01T06:10:16;5.28;;;3.08;;
51128;SDS011;46230;47.522;19.098;2022-08-01T06:12:17;4.53;;;2.50;;
51128;SDS011;46230;47.522;19.098;2022-08-01T06:14:17;6.55;;;2.50;;
51128;SDS011;46230;47.522;19.098;2022-08-01T06:16:17;3.30;;;2.47;;
51128;SDS011;46230;47.522;19.098;2022-08-01T06:18:18;4.28;;;2.50;;
51128;SDS011;46230;47.522;19.098;2022-08-01T06:20:19;7.40;;;2.47;;
51128;SDS011;46230;47.522;19.098;2022-08-01T06:22:19;6.50;;;2.63;;
51128;SDS011;46230;47.522;19.098;2022-08-01T06:24:20;7.97;;;2.50;;
51128;SDS011;46230;47.522;19.098;2022-08-01T06:26:20;5.40;;;2.70;;
51128;SDS011;46230;47.522;19.098;2022-08-01T06:28:21;13.18;;;2.75;;
51128;SDS011;46230;47.522;19.098;2022-08-01T06:30:22;8.95;;;2.42;;
51128;SDS011;46230;47.522;19.098;2022-08-01T06:32:22;4.97;;;2.72;;
51128;SDS011;46230;47.522;19.098;2022-08-01T06:34:23;10.55;;;2.60;;
51128;SDS011;46230;47.522;19.098;2022-08-01T06:36:23;6.63;;;2.30;;
51128;SDS011;46230;47.522;19.098;2022-08-01T06:38:24;8.40;;;2.50;;
51128;SDS011;46230;47.522;19.098;2022-08-01T06:40:24;4.53;;;2.70;;
51128;SDS011;46230;47.522;19.098;2022-08-01T06:42:25;4.68;;;2.45;;
51128;SDS011;46230;47.522;19.098;2022-08-01T06:44:25;4.07;;;2.92;;
51128;SDS011;46230;47.522;19.098;2022-08-01T06:46:26;8.82;;;3.60;;
51128;SDS011;46230;47.522;19.098;2022-08-01T06:48:26;4.40;;;2.40;;
51128;SDS011;46230;47.522;19.098;2022-08-01T06:50:26;4.45;;;2.40;;
51128;SDS011;46230;47.522;19.098;2022-08-01T06:52:27;2.75;;;2.28;;
51128;SDS011;46230;47.522;19.098;2022-08-01T06:54:30;15.98;;;3.83;;
51128;SDS011;46230;47.522;19.098;2022-08-01T06:56:30;3.92;;;2.75;;
51128;SDS011;46230;47.522;19.098;2022-08-01T06:58:31;7.75;;;2.78;;
51128;SDS011;46230;47.522;19.098;2022-08-01T07:00:33;5.75;;;2.47;;
51128;SDS011;46230;47.522;19.098;2022-08-01T07:02:34;3.38;;;2.22;;
51128;SDS011;46230;47.522;19.098;2022-08-01T07:04:35;5.40;;;2.35;;
51128;SDS011;46230;47.522;19.098;2022-08-01T07:06:36;6.20;;;2.80;;
51128;SDS011;46230;47.522;19.098;2022-08-01T07:08:36;2.63;;;2.38;;
51128;SDS011;46230;47.522;19.098;2022-08-01T07:10:37;3.92;;;2.45;;
51128;SDS011;46230;47.522;19.098;2022-08-01T07:12:37;7.53;;;2.50;;
51128;SDS011;46230;47.522;19.098;2022-08-01T07:14:37;4.80;;;2.38;;
51128;SDS011;46230;47.522;19.098;2022-08-01T07:16:38;4.80;;;2.38;;
51128;SDS011;46230;47.522;19.098;2022-08-01T07:18:38;3.10;;;2.55;;
51128;SDS011;46230;47.522;19.098;2022-08-01T07:20:39;2.83;;;2.20;;
51128;SDS011;46230;47.522;19.098;2022-08-01T07:22:39;5.35;;;2.70;;
51128;SDS011;46230;47.522;19.098;2022-08-01T07:24:40;6.57;;;2.50;;
51128;SDS011;46230;47.522;19.098;2022-08-01T07:26:41;3.65;;;2.40;;
51128;SDS011;46230;47.522;19.098;2022-08-01T07:28:42;3.95;;;2.50;;
51128;SDS011;46230;47.522;19.098;2022-08-01T07:30:43;4.72;;;2.58;;
51128;SDS011;46230;47.522;19.098;2022-08-01T07:32:43;10.95;;;2.22;;
51128;SDS011;46230;47.522;19.098;2022-08-01T07:34:43;3.60;;;2.00;;
51128;SDS011;46230;47.522;19.098;2022-08-01T07:36:44;5.68;;;2.00;;
51128;SDS011;46230;47.522;19.098;2022-08-01T07:38:44;5.18;;;2.40;;
51128;SDS011;46230;47.522;19.098;2022-08-01T07:40:45;3.30;;;2.35;;
51128;SDS011;46230;47.522;19.098;2022-08-01T07:42:46;9.60;;;2.25;;
51128;SDS011;46230;47.522;19.098;2022-08-01T07:44:47;5.47;;;2.20;;
51128;SDS011;46230;47.522;19.098;2022-08-01T07:46:47;4.75;;;2.10;;
51128;SDS011;46230;47.522;19.098;2022-08-01T07:48:47;5.00;;;2.10;;
51128;SDS011;46230;47.522;19.098;2022-08-01T07:50:48;3.22;;;1.80;;
51128;SDS011;46230;47.522;19.098;2022-08-01T07:52:48;3.97;;;2.20;;
51128;SDS011;46230;47.522;19.098;2022-08-01T07:54:48;4.38;;;2.00;;
51128;SDS011;46230;47.522;19.098;2022-08-01T07:56:49;2.72;;;2.00;;
51128;SDS011;46230;47.522;19.098;2022-08-01T07:58:50;1.95;;;1.80;;
51128;SDS011;46230;47.522;19.098;2022-08-01T08:00:50;4.10;;;2.30;;
51128;SDS011;46230;47.522;19.098;2022-08-01T08:02:51;4.72;;;2.00;;
51128;SDS011;46230;47.522;19.098;2022-08-01T08:04:51;2.85;;;2.10;;
51128;SDS011;46230;47.522;19.098;2022-08-01T08:06:52;3.42;;;2.15;;
51128;SDS011;46230;47.522;19.098;2022-08-01T08:08:52;2.65;;;1.85;;
51128;SDS011;46230;47.522;19.098;2022-08-01T08:10:53;3.90;;;2.00;;
51128;SDS011;46230;47.522;19.098;2022-08-01T08:12:53;5.75;;;1.98;;
51128;SDS011;46230;47.522;19.098;2022-08-01T08:14:54;2.95;;;1.83;;
51128;SDS011;46230;47.522;19.098;2022-08-01T08:16:54;3.92;;;1.73;;
51128;SDS011;46230;47.522;19.098;2022-08-01T08:18:55;4.60;;;2.00;;
51128;SDS011;46230;47.522;19.098;2022-08-01T08:20:55;3.33;;;1.90;;
51128;SDS011;46230;47.522;19.098;2022-08-01T08:22:56;4.03;;;1.92;;
51128;SDS011;46230;47.522;19.098;2022-08-01T08:24:56;5.13;;;2.10;;
51128;SDS011;46230;47.522;19.098;2022-08-01T08:26:58;4.18;;;1.90;;
51128;SDS011;46230;47.522;19.098;2022-08-01T08:28:59;5.50;;;1.80;;
51128;SDS011;46230;47.522;19.098;2022-08-01T08:30:59;3.30;;;1.92;;
51128;SDS011;46230;47.522;19.098;2022-08-01T08:32:59;3.42;;;1.73;;
51128;SDS011;46230;47.522;19.098;2022-08-01T08:35:00;3.95;;;1.80;;
51128;SDS011;46230;47.522;19.098;2022-08-01T08:37:00;4.93;;;2.25;;
51128;SDS011;46230;47.522;19.098;2022-08-01T08:39:01;6.28;;;2.10;;
51128;SDS011;46230;47.522;19.098;2022-08-01T08:41:01;3.08;;;1.83;;
51128;SDS011;46230;47.522;19.098;2022-08-01T08:43:01;4.63;;;2.08;;
51128;SDS011;46230;47.522;19.098;2022-08-01T08:45:05;2.92;;;1.80;;
51128;SDS011;46230;47.522;19.098;2022-08-01T08:47:06;4.30;;;1.88;;
51128;SDS011;46230;47.522;19.098;2022-08-01T08:49:07;4.35;;;2.17;;
51128;SDS011;46230;47.522;19.098;2022-08-01T08:51:08;4.57;;;1.90;;
51128;SDS011;46230;47.522;19.098;2022-08-01T08:53:10;2.70;;;1.90;;
51128;SDS011;46230;47.522;19.098;2022-08-01T08:55:13;2.33;;;1.90;;
51128;SDS011;46230;47.522;19.098;2022-08-01T08:57:17;5.90;;;2.00;;
51128;SDS011;46230;47.522;19.098;2022-08-01T08:59:19;5.88;;;2.10;;
51128;SDS011;46230;47.522;19.098;2022-08-01T09:01:20;5.25;;;2.00;;
51128;SDS011;46230;47.522;19.098;2022-08-01T09:03:20;5.30;;;1.95;;
51128;SDS011;46230;47.522;19.098;2022-08-01T09:05:22;5.30;;;2.10;;
51128;SDS011;46230;47.522;19.098;2022-08-01T09:07:23;4.72;;;1.83;;
51128;SDS011;46230;47.522;19.098;2022-08-01T09:09:23;5.32;;;2.00;;
51128;SDS011;46230;47.522;19.098;2022-08-01T09:11:24;4.00;;;2.00;;
51128;SDS011;46230;47.522;19.098;2022-08-01T09:13:24;2.90;;;2.15;;
51128;SDS011;46230;47.522;19.098;2022-08-01T09:15:38;2.47;;;2.17;;
51128;SDS011;46230;47.522;19.098;2022-08-01T09:17:42;5.80;;;2.00;;
51128;SDS011;46230;47.522;19.098;2022-08-01T09:19:44;4.03;;;2.10;;
51128;SDS011;46230;47.522;19.098;2022-08-01T09:23:58;6.35;;;1.67;;
51128;SDS011;46230;47.522;19.098;2022-08-01T09:25:59;5.60;;;2.35;;
51128;SDS011;46230;47.522;19.098;2022-08-01T09:28:03;2.75;;;1.90;;
51128;SDS011;46230;47.522;19.098;2022-08-01T09:30:17;2.33;;;2.00;;
51128;SDS011;46230;47.522;19.098;2022-08-01T09:32:19;4.20;;;2.15;;
51128;SDS011;46230;47.522;19.098;2022-08-01T09:34:24;2.83;;;2.00;;
51128;SDS011;46230;47.522;19.098;2022-08-01T09:36:27;5.05;;;2.05;;
51128;SDS011;46230;47.522;19.098;2022-08-01T09:38:44;3.10;;;2.05;;
51128;SDS011;46230;47.522;19.098;2022-08-01T09:40:45;3.17;;;2.00;;
51128;SDS011;46230;47.522;19.098;2022-08-01T09:42:46;5.28;;;2.60;;
51128;SDS011;46230;47.522;19.098;2022-08-01T09:44:47;5.15;;;2.20;;
51128;SDS011;46230;47.522;19.098;2022-08-01T09:46:48;3.83;;;2.35;;
51128;SDS011;46230;47.522;19.098;2022-08-01T09:50:57;5.38;;;2.20;;
51128;SDS011;46230;47.522;19.098;2022-08-01T09:52:58;2.92;;;1.80;;
51128;SDS011;46230;47.522;19.098;2022-08-01T09:55:00;4.63;;;1.77;;
51128;SDS011;46230;47.522;19.098;2022-08-01T09:57:09;3.78;;;2.17;;
51128;SDS011;46230;47.522;19.098;2022-08-01T09:59:10;2.50;;;2.17;;
51128;SDS011;46230;47.522;19.098;2022-08-01T10:01:11;3.33;;;2.22;;
51128;SDS011;46230;47.522;19.098;2022-08-01T10:03:24;6.13;;;2.05;;
51128;SDS011;46230;47.522;19.098;2022-08-01T10:05:32;2.30;;;2.00;;
51128;SDS011;46230;47.522;19.098;2022-08-01T10:07:34;6.85;;;2.13;;
51128;SDS011;46230;47.522;19.098;2022-08-01T10:09:37;6.45;;;2.60;;
51128;SDS011;46230;47.522;19.098;2022-08-01T10:11:37;8.95;;;2.53;;
51128;SDS011;46230;47.522;19.098;2022-08-01T10:13:38;6.55;;;2.80;;
51128;SDS011;46230;47.522;19.098;2022-08-01T10:15:39;4.55;;;2.25;;
51128;SDS011;46230;47.522;19.098;2022-08-01T10:17:40;4.05;;;2.20;;
51128;SDS011;46230;47.522;19.098;2022-08-01T10:19:41;4.57;;;2.28;;
51128;SDS011;46230;47.522;19.098;2022-08-01T10:21:43;5.43;;;2.20;;
51128;SDS011;46230;47.522;19.098;2022-08-01T10:23:43;4.75;;;2.30;;
51128;SDS011;46230;47.522;19.098;2022-08-01T10:25:45;5.35;;;2.45;;
51128;SDS011;46230;47.522;19.098;2022-08-01T10:27:45;4.40;;;2.22;;
51128;SDS011;46230;47.522;19.098;2022-08-01T10:29:57;6.60;;;2.40;;
51128;SDS011;46230;47.522;19.098;2022-08-01T10:31:59;3.72;;;2.00;;
51128;SDS011;46230;47.522;19.098;2022-08-01T10:33:59;4.55;;;2.55;;
51128;SDS011;46230;47.522;19.098;2022-08-01T10:36:00;4.28;;;2.33;;
51128;SDS011;46230;47.522;19.098;2022-08-01T10:38:01;5.03;;;2.45;;
51128;SDS011;46230;47.522;19.098;2022-08-01T10:40:02;11.82;;;2.40;;
51128;SDS011;46230;47.522;19.098;2022-08-01T10:42:03;4.22;;;2.25;;
51128;SDS011;46230;47.522;19.098;2022-08-01T10:44:07;4.22;;;2.35;;
51128;SDS011;46230;47.522;19.098;2022-08-01T10:46:08;3.50;;;2.40;;
51128;SDS011;46230;47.522;19.098;2022-08-01T10:48:10;2.60;;;2.17;;
51128;SDS011;46230;47.522;19.098;2022-08-01T10:50:27;3.28;;;2.42;;
51128;SDS011;46230;47.522;19.098;2022-08-01T10:55:17;3.15;;;2.50;;
51128;SDS011;46230;47.522;19.098;2022-08-01T10:57:18;3.22;;;2.65;;
51128;SDS011;46230;47.522;19.098;2022-08-01T10:59:25;3.40;;;2.40;;
51128;SDS011;46230;47.522;19.098;2022-08-01T11:01:28;5.93;;;2.40;;
51128;SDS011;46230;47.522;19.098;2022-08-01T11:03:34;5.82;;;2.55;;
51128;SDS011;46230;47.522;19.098;2022-08-01T11:05:35;6.88;;;2.70;;
51128;SDS011;46230;47.522;19.098;2022-08-01T11:07:42;2.67;;;2.30;;
51128;SDS011;46230;47.522;19.098;2022-08-01T11:09:45;3.28;;;2.35;;
51128;SDS011;46230;47.522;19.098;2022-08-01T11:12:03;3.65;;;2.38;;
51128;SDS011;46230;47.522;19.098;2022-08-01T11:14:06;3.88;;;2.47;;
51128;SDS011;46230;47.522;19.098;2022-08-01T11:16:24;4.82;;;2.38;;
51128;SDS011;46230;47.522;19.098;2022-08-01T11:22:27;3.88;;;2.45;;
51128;SDS011;46230;47.522;19.098;2022-08-01T11:27:15;2.78;;;2.25;;
51128;SDS011;46230;47.522;19.098;2022-08-01T11:29:19;4.75;;;2.20;;
51128;SDS011;46230;47.522;19.098;2022-08-01T11:36:27;3.45;;;2.60;;
51128;SDS011;46230;47.522;19.098;2022-08-01T11:38:22;5.32;;;2.60;;
51128;SDS011;46230;47.522;19.098;2022-08-01T11:40:29;2.60;;;2.40;;
51128;SDS011;46230;47.522;19.098;2022-08-01T11:42:29;2.90;;;2.50;;
51128;SDS011;46230;47.522;19.098;2022-08-01T11:44:30;2.70;;;2.25;;
51128;SDS011;46230;47.522;19.098;2022-08-01T11:47:04;5.55;;;2.40;;
51128;SDS011;46230;47.522;19.098;2022-08-01T11:51:30;4.43;;;2.38;;
51128;SDS011;46230;47.522;19.098;2022-08-01T11:53:32;3.05;;;2.28;;
51128;SDS011;46230;47.522;19.098;2022-08-01T11:55:32;7.72;;;2.50;;
51128;SDS011;46230;47.522;19.098;2022-08-01T11:57:33;6.13;;;2.58;;
51128;SDS011;46230;47.522;19.098;2022-08-01T11:59:36;4.93;;;2.40;;
51128;SDS011;46230;47.522;19.098;2022-08-01T12:01:42;4.18;;;2.38;;
51128;SDS011;46230;47.522;19.098;2022-08-01T12:03:42;5.37;;;2.67;;
51128;SDS011;46230;47.522;19.098;2022-08-01T12:05:43;4.40;;;2.45;;
51128;SDS011;46230;47.522;19.098;2022-08-01T12:07:44;3.20;;;2.50;;
51128;SDS011;46230;47.522;19.098;2022-08-01T12:09:46;2.92;;;2.40;;
51128;SDS011;46230;47.522;19.098;2022-08-01T12:11:47;3.80;;;2.85;;
51128;SDS011;46230;47.522;19.098;2022-08-01T12:13:48;3.47;;;2.83;;
51128;SDS011;46230;47.522;19.098;2022-08-01T12:15:48;5.68;;;3.03;;
51128;SDS011;46230;47.522;19.098;2022-08-01T12:18:01;3.00;;;2.55;;
51128;SDS011;46230;47.522;19.098;2022-08-01T12:20:05;3.20;;;2.75;;
51128;SDS011;46230;47.522;19.098;2022-08-01T12:22:12;3.63;;;2.70;;
51128;SDS011;46230;47.522;19.098;2022-08-01T12:24:13;4.18;;;2.80;;
51128;SDS011;46230;47.522;19.098;2022-08-01T12:26:21;3.72;;;2.70;;
51128;SDS011;46230;47.522;19.098;2022-08-01T12:28:22;3.83;;;2.80;;
51128;SDS011;46230;47.522;19.098;2022-08-01T12:30:23;5.47;;;2.92;;
51128;SDS011;46230;47.522;19.098;2022-08-01T12:32:27;4.38;;;2.42;;
51128;SDS011;46230;47.522;19.098;2022-08-01T12:34:29;4.18;;;2.30;;
51128;SDS011;46230;47.522;19.098;2022-08-01T12:36:30;2.83;;;2.60;;
51128;SDS011;46230;47.522;19.098;2022-08-01T12:38:30;5.03;;;2.30;;
51128;SDS011;46230;47.522;19.098;2022-08-01T12:40:32;3.65;;;2.63;;
51128;SDS011;46230;47.522;19.098;2022-08-01T12:42:42;4.55;;;2.45;;
51128;SDS011;46230;47.522;19.098;2022-08-01T12:44:45;5.28;;;2.53;;
51128;SDS011;46230;47.522;19.098;2022-08-01T12:46:48;3.67;;;2.92;;
51128;SDS011;46230;47.522;19.098;2022-08-01T12:48:48;3.50;;;2.40;;